createdAt,value
2023-12-14T09:07:29.262Z,22.23
2023-12-14T09:12:23.075Z,42.37
2023-12-14T09:17:16.922Z,21.47
2023-12-14T09:22:10.759Z,21.13
2023-12-14T09:27:06.225Z,18.40
2023-12-14T09:32:00.012Z,17.00
2023-12-14T09:36:55.954Z,16.30
2023-12-14T09:41:53.402Z,17.37
2023-12-14T09:46:50.838Z,17.43
2023-12-14T09:51:44.938Z,18.57
2023-12-14T09:56:47.780Z,13.83
2023-12-14T10:01:43.220Z,12.33
2023-12-14T10:06:39.540Z,13.40
2023-12-14T10:11:33.390Z,11.70
2023-12-14T10:16:32.160Z,11.37
2023-12-14T10:21:25.969Z,15.00
2023-12-14T10:26:21.777Z,16.90
2023-12-14T10:31:16.893Z,17.10
2023-12-14T10:36:12.023Z,16.23
2023-12-14T10:41:08.591Z,15.47
2023-12-14T10:46:05.445Z,21.27
2023-12-14T10:51:02.400Z,18.07
2023-12-14T10:55:58.697Z,17.73
2023-12-14T11:01:03.970Z,16.83
2023-12-14T11:06:06.667Z,16.07
2023-12-14T11:11:12.316Z,15.77
2023-12-14T11:16:08.565Z,17.53
2023-12-14T11:21:03.554Z,15.93
2023-12-14T11:26:00.724Z,14.63
2023-12-14T11:30:56.100Z,14.37
2023-12-14T11:35:54.239Z,18.43
2023-12-14T11:40:49.057Z,18.40
2023-12-14T11:45:43.910Z,18.30
2023-12-14T11:50:37.804Z,16.43
2023-12-14T11:55:34.258Z,14.13
2023-12-14T12:00:29.779Z,15.40
2023-12-14T12:05:39.159Z,14.47
2023-12-14T12:10:35.008Z,14.20
2023-12-14T12:15:28.780Z,14.73
2023-12-14T12:20:22.420Z,15.93
2023-12-14T12:25:16.308Z,15.27
2023-12-14T12:30:14.530Z,17.57
2023-12-14T12:35:09.695Z,15.73
2023-12-14T12:40:03.583Z,15.30
2023-12-14T12:44:57.399Z,16.20
2023-12-14T12:49:52.779Z,14.53
2023-12-14T12:54:46.622Z,14.30
2023-12-14T12:59:40.264Z,12.30
2023-12-14T13:04:34.432Z,12.27
2023-12-14T13:09:29.964Z,12.70
2023-12-14T13:14:24.052Z,10.20
2023-12-14T13:19:18.466Z,10.73
2023-12-14T13:24:12.347Z,10.80
2023-12-14T13:29:08.067Z,8.53
2023-12-14T13:34:01.780Z,8.00
2023-12-14T13:38:55.532Z,12.37
2023-12-14T13:43:49.168Z,14.07
2023-12-14T13:48:44.453Z,16.33
2023-12-14T13:53:38.273Z,15.77
2023-12-14T13:58:32.057Z,11.57
2023-12-14T14:03:27.416Z,10.40
2023-12-14T14:08:22.927Z,9.60
2023-12-14T14:13:16.584Z,9.07
2023-12-14T14:18:10.954Z,7.27
2023-12-14T14:23:06.076Z,5.30
2023-12-14T14:28:02.260Z,8.97
2023-12-14T14:32:56.196Z,17.17
2023-12-14T14:37:51.512Z,17.60
2023-12-14T14:42:45.608Z,17.07
2023-12-14T14:47:43.190Z,20.83
2023-12-14T14:52:37.774Z,16.80
2023-12-14T14:57:33.173Z,17.20
2023-12-14T15:02:26.988Z,22.10
2023-12-14T15:07:22.588Z,22.53
2023-12-14T15:12:16.320Z,23.90
2023-12-14T15:17:10.102Z,24.77
2023-12-14T15:22:03.835Z,23.37
2023-12-14T15:26:59.826Z,17.97
2023-12-14T15:31:54.670Z,17.73
2023-12-14T15:36:48.530Z,25.20
2023-12-14T15:41:42.246Z,25.70
2023-12-14T15:46:37.522Z,27.73
2023-12-14T15:51:31.136Z,30.93
